sensor_id;sensor_type;location;lat;lon;timestamp;temperature;humidity
240;DHT22;104;53.590;10.004;2022-10-16T07:03:00;15.60;96.80
240;DHT22;104;53.590;10.004;2022-10-16T07:25:08;16.40;96.80
240;DHT22;104;53.590;10.004;2022-10-16T07:27:36;16.50;96.80
240;DHT22;104;53.590;10.004;2022-10-16T07:30:06;16.70;96.80
240;DHT22;104;53.590;10.004;2022-10-16T07:35:00;16.60;96.80
240;DHT22;104;53.590;10.004;2022-10-16T07:37:27;16.60;96.80
240;DHT22;104;53.590;10.004;2022-10-16T07:39:54;16.50;96.80
240;DHT22;104;53.590;10.004;2022-10-16T07:42:21;16.50;96.80
240;DHT22;104;53.590;10.004;2022-10-16T07:44:48;16.80;96.80
240;DHT22;104;53.590;10.004;2022-10-16T07:47:17;16.90;96.80
240;DHT22;104;53.590;10.004;2022-10-16T07:49:44;16.90;96.80
240;DHT22;104;53.590;10.004;2022-10-16T07:52:11;17.00;96.80
240;DHT22;104;53.590;10.004;2022-10-16T07:54:38;17.20;96.80
240;DHT22;104;53.590;10.004;2022-10-16T07:57:05;17.20;96.80
240;DHT22;104;53.590;10.004;2022-10-16T07:59:32;17.50;96.80
240;DHT22;104;53.590;10.004;2022-10-16T08:04:28;17.60;96.80
240;DHT22;104;53.590;10.004;2022-10-16T08:14:18;18.20;96.80
240;DHT22;104;53.590;10.004;2022-10-16T08:19:12;18.30;96.80
240;DHT22;104;53.590;10.004;2022-10-16T08:21:42;18.50;96.20
240;DHT22;104;53.590;10.004;2022-10-16T08:26:36;19.00;95.30
240;DHT22;104;53.590;10.004;2022-10-16T08:29:03;19.20;94.30
240;DHT22;104;53.590;10.004;2022-10-16T08:31:31;19.20;92.70
240;DHT22;104;53.590;10.004;2022-10-16T08:36:25;19.20;92.90
240;DHT22;104;53.590;10.004;2022-10-16T08:38:54;19.30;92.80
240;DHT22;104;53.590;10.004;2022-10-16T08:41:41;19.30;91.70
240;DHT22;104;53.590;10.004;2022-10-16T08:44:35;18.90;92.90
240;DHT22;104;53.590;10.004;2022-10-16T08:47:13;18.80;92.90
240;DHT22;104;53.590;10.004;2022-10-16T08:49:53;18.20;95.60
240;DHT22;104;53.590;10.004;2022-10-16T08:52:30;18.10;96.10
240;DHT22;104;53.590;10.004;2022-10-16T08:55:01;18.00;96.50
240;DHT22;104;53.590;10.004;2022-10-16T08:57:29;18.00;96.80
240;DHT22;104;53.590;10.004;2022-10-16T09:00:00;18.00;96.80
240;DHT22;104;53.590;10.004;2022-10-16T09:02:32;18.10;96.80
240;DHT22;104;53.590;10.004;2022-10-16T09:07:56;18.40;96.00
240;DHT22;104;53.590;10.004;2022-10-16T09:10:37;18.40;96.00
240;DHT22;104;53.590;10.004;2022-10-16T09:13:15;18.50;95.70
240;DHT22;104;53.590;10.004;2022-10-16T09:15:49;18.80;94.20
240;DHT22;104;53.590;10.004;2022-10-16T09:18:25;18.80;94.10
240;DHT22;104;53.590;10.004;2022-10-16T09:20:59;19.10;93.70
240;DHT22;104;53.590;10.004;2022-10-16T09:23:30;19.30;93.50
240;DHT22;104;53.590;10.004;2022-10-16T09:25:58;19.40;93.50
240;DHT22;104;53.590;10.004;2022-10-16T09:28:26;19.90;91.00
240;DHT22;104;53.590;10.004;2022-10-16T09:30:53;20.00;90.40
240;DHT22;104;53.590;10.004;2022-10-16T09:33:23;20.00;90.40
240;DHT22;104;53.590;10.004;2022-10-16T09:35:53;20.30;89.20
240;DHT22;104;53.590;10.004;2022-10-16T09:38:23;20.30;89.20
240;DHT22;104;53.590;10.004;2022-10-16T09:40:50;20.40;88.60
240;DHT22;104;53.590;10.004;2022-10-16T09:43:23;20.40;87.90
240;DHT22;104;53.590;10.004;2022-10-16T09:45:58;20.20;88.60
240;DHT22;104;53.590;10.004;2022-10-16T09:48:28;20.20;88.70
240;DHT22;104;53.590;10.004;2022-10-16T09:50:59;20.20;89.00
240;DHT22;104;53.590;10.004;2022-10-16T09:53:40;20.40;88.40
240;DHT22;104;53.590;10.004;2022-10-16T09:56:10;20.30;88.80
240;DHT22;104;53.590;10.004;2022-10-16T09:58:49;20.10;89.60
240;DHT22;104;53.590;10.004;2022-10-16T10:01:16;20.30;89.50
240;DHT22;104;53.590;10.004;2022-10-16T10:03:44;20.60;88.70
240;DHT22;104;53.590;10.004;2022-10-16T10:06:26;20.80;88.00
240;DHT22;104;53.590;10.004;2022-10-16T10:11:50;21.00;87.70
240;DHT22;104;53.590;10.004;2022-10-16T10:14:25;21.40;85.90
240;DHT22;104;53.590;10.004;2022-10-16T10:17:13;21.30;85.60
240;DHT22;104;53.590;10.004;2022-10-16T10:19:44;21.20;86.20
240;DHT22;104;53.590;10.004;2022-10-16T10:22:39;21.10;86.70
240;DHT22;104;53.590;10.004;2022-10-16T10:25:42;20.90;87.30
240;DHT22;104;53.590;10.004;2022-10-16T10:28:42;20.90;87.30
240;DHT22;104;53.590;10.004;2022-10-16T10:31:21;21.00;87.30
240;DHT22;104;53.590;10.004;2022-10-16T18:27:54;17.90;96.80
240;DHT22;104;53.590;10.004;2022-10-16T19:46:36;17.60;96.80
240;DHT22;104;53.590;10.004;2022-10-16T19:49:06;17.60;96.80
240;DHT22;104;53.590;10.004;2022-10-16T19:51:34;17.50;96.80
240;DHT22;104;53.590;10.004;2022-10-16T19:54:03;17.60;96.80
240;DHT22;104;53.590;10.004;2022-10-16T19:56:31;17.60;96.80
240;DHT22;104;53.590;10.004;2022-10-16T19:58:59;17.50;96.80
240;DHT22;104;53.590;10.004;2022-10-16T20:01:28;17.50;96.80
240;DHT22;104;53.590;10.004;2022-10-16T20:03:57;17.50;96.80
240;DHT22;104;53.590;10.004;2022-10-16T20:06:25;17.50;96.80
240;DHT22;104;53.590;10.004;2022-10-16T20:08:53;17.50;96.80
240;DHT22;104;53.590;10.004;2022-10-16T20:11:41;17.50;96.80
240;DHT22;104;53.590;10.004;2022-10-16T20:17:07;17.50;96.80
240;DHT22;104;53.590;10.004;2022-10-16T20:19:35;17.50;96.80
240;DHT22;104;53.590;10.004;2022-10-16T20:22:04;17.50;96.80
240;DHT22;104;53.590;10.004;2022-10-16T20:24:31;17.50;96.80
240;DHT22;104;53.590;10.004;2022-10-16T20:26:58;17.60;96.80
240;DHT22;104;53.590;10.004;2022-10-16T20:29:25;17.50;96.80
240;DHT22;104;53.590;10.004;2022-10-16T20:31:52;17.50;96.80
240;DHT22;104;53.590;10.004;2022-10-16T20:36:48;17.50;96.80
240;DHT22;104;53.590;10.004;2022-10-16T20:39:15;17.40;96.80
240;DHT22;104;53.590;10.004;2022-10-16T20:41:42;17.30;96.80
240;DHT22;104;53.590;10.004;2022-10-16T20:44:09;17.30;96.80
